sensor_id;sensor_type;location;lat;lon;timestamp;P1;durP1;ratioP1;P2;durP2;ratioP2
37859;SDS011;23698;52.014;5.190;2023-03-15T00:00:02;3.85;;;1.40;;
37859;SDS011;23698;52.014;5.190;2023-03-15T00:02:50;2.63;;;1.40;;
37859;SDS011;23698;52.014;5.190;2023-03-15T00:05:39;6.18;;;1.33;;
37859;SDS011;23698;52.014;5.190;2023-03-15T00:08:27;4.88;;;1.30;;
37859;SDS011;23698;52.014;5.190;2023-03-15T00:11:13;2.83;;;1.20;;
37859;SDS011;23698;52.014;5.190;2023-03-15T00:14:00;4.32;;;1.30;;
37859;SDS011;23698;52.014;5.190;2023-03-15T00:16:47;2.97;;;0.88;;
37859;SDS011;23698;52.014;5.190;2023-03-15T00:19:33;2.77;;;1.00;;
37859;SDS011;23698;52.014;5.190;2023-03-15T00:22:22;7.05;;;1.38;;
37859;SDS011;23698;52.014;5.190;2023-03-15T00:25:08;2.00;;;1.50;;
37859;SDS011;23698;52.014;5.190;2023-03-15T00:27:55;0.93;;;0.80;;
37859;SDS011;23698;52.014;5.190;2023-03-15T00:30:42;5.93;;;1.08;;
37859;SDS011;23698;52.014;5.190;2023-03-15T00:33:30;2.17;;;0.80;;
37859;SDS011;23698;52.014;5.190;2023-03-15T00:36:19;5.03;;;1.00;;
37859;SDS011;23698;52.014;5.190;2023-03-15T00:39:09;1.90;;;1.10;;
37859;SDS011;23698;52.014;5.190;2023-03-15T00:41:56;1.77;;;0.93;;
37859;SDS011;23698;52.014;5.190;2023-03-15T00:44:43;1.00;;;0.80;;
37859;SDS011;23698;52.014;5.190;2023-03-15T00:47:30;1.30;;;0.98;;
37859;SDS011;23698;52.014;5.190;2023-03-15T00:50:17;3.30;;;1.10;;
37859;SDS011;23698;52.014;5.190;2023-03-15T00:53:03;3.33;;;0.70;;
37859;SDS011;23698;52.014;5.190;2023-03-15T00:55:51;2.33;;;1.20;;
37859;SDS011;23698;52.014;5.190;2023-03-15T00:58:37;3.75;;;1.10;;
37859;SDS011;23698;52.014;5.190;2023-03-15T01:01:25;2.78;;;1.02;;
37859;SDS011;23698;52.014;5.190;2023-03-15T01:04:13;2.25;;;1.00;;
37859;SDS011;23698;52.014;5.190;2023-03-15T01:06:59;6.57;;;1.35;;
37859;SDS011;23698;52.014;5.190;2023-03-15T01:09:45;3.55;;;1.48;;
37859;SDS011;23698;52.014;5.190;2023-03-15T01:12:34;4.20;;;1.40;;
37859;SDS011;23698;52.014;5.190;2023-03-15T01:15:20;5.18;;;1.67;;
37859;SDS011;23698;52.014;5.190;2023-03-15T01:18:06;4.20;;;1.88;;
37859;SDS011;23698;52.014;5.190;2023-03-15T01:20:53;2.20;;;1.20;;
37859;SDS011;23698;52.014;5.190;2023-03-15T01:23:39;3.83;;;1.70;;
37859;SDS011;23698;52.014;5.190;2023-03-15T01:26:26;3.75;;;1.50;;
37859;SDS011;23698;52.014;5.190;2023-03-15T01:29:14;2.80;;;1.40;;
37859;SDS011;23698;52.014;5.190;2023-03-15T01:32:02;6.70;;;2.05;;
37859;SDS011;23698;52.014;5.190;2023-03-15T01:34:48;4.43;;;1.92;;
37859;SDS011;23698;52.014;5.190;2023-03-15T01:37:35;5.50;;;1.60;;
37859;SDS011;23698;52.014;5.190;2023-03-15T01:40:21;3.85;;;1.60;;
37859;SDS011;23698;52.014;5.190;2023-03-15T01:43:16;3.42;;;1.60;;
37859;SDS011;23698;52.014;5.190;2023-03-15T01:46:11;6.00;;;1.50;;
37859;SDS011;23698;52.014;5.190;2023-03-15T01:49:08;8.40;;;1.80;;
37859;SDS011;23698;52.014;5.190;2023-03-15T01:52:01;8.98;;;1.83;;
37859;SDS011;23698;52.014;5.190;2023-03-15T01:55:09;3.33;;;1.48;;
37859;SDS011;23698;52.014;5.190;2023-03-15T01:58:09;5.97;;;1.80;;
37859;SDS011;23698;52.014;5.190;2023-03-15T02:00:59;6.20;;;1.47;;
37859;SDS011;23698;52.014;5.190;2023-03-15T02:03:51;4.57;;;1.70;;
37859;SDS011;23698;52.014;5.190;2023-03-15T02:06:48;7.05;;;2.95;;
37859;SDS011;23698;52.014;5.190;2023-03-15T02:09:36;3.25;;;1.55;;
37859;SDS011;23698;52.014;5.190;2023-03-15T02:12:29;4.18;;;1.63;;
37859;SDS011;23698;52.014;5.190;2023-03-15T02:15:18;6.47;;;1.88;;
37859;SDS011;23698;52.014;5.190;2023-03-15T02:18:05;6.80;;;2.00;;
37859;SDS011;23698;52.014;5.190;2023-03-15T02:20:55;9.40;;;2.25;;
37859;SDS011;23698;52.014;5.190;2023-03-15T02:23:48;15.05;;;2.90;;
37859;SDS011;23698;52.014;5.190;2023-03-15T02:26:41;13.20;;;4.00;;
37859;SDS011;23698;52.014;5.190;2023-03-15T02:29:31;13.20;;;7.03;;
37859;SDS011;23698;52.014;5.190;2023-03-15T02:32:18;15.40;;;7.80;;
37859;SDS011;23698;52.014;5.190;2023-03-15T02:35:06;13.57;;;8.15;;
37859;SDS011;23698;52.014;5.190;2023-03-15T02:37:53;14.88;;;8.60;;
37859;SDS011;23698;52.014;5.190;2023-03-15T02:40:39;15.45;;;9.00;;
37859;SDS011;23698;52.014;5.190;2023-03-15T02:43:27;15.80;;;9.20;;
37859;SDS011;23698;52.014;5.190;2023-03-15T02:46:17;16.00;;;9.23;;
37859;SDS011;23698;52.014;5.190;2023-03-15T02:49:05;16.38;;;9.70;;
37859;SDS011;23698;52.014;5.190;2023-03-15T02:51:53;17.00;;;10.37;;
37859;SDS011;23698;52.014;5.190;2023-03-15T02:54:40;15.32;;;10.40;;
37859;SDS011;23698;52.014;5.190;2023-03-15T02:57:28;19.30;;;9.52;;
37859;SDS011;23698;52.014;5.190;2023-03-15T03:00:15;18.38;;;10.35;;
37859;SDS011;23698;52.014;5.190;2023-03-15T03:03:03;17.05;;;10.20;;
37859;SDS011;23698;52.014;5.190;2023-03-15T03:05:50;15.60;;;9.90;;
37859;SDS011;23698;52.014;5.190;2023-03-15T03:08:37;23.15;;;10.38;;
37859;SDS011;23698;52.014;5.190;2023-03-15T03:11:25;18.40;;;10.23;;
37859;SDS011;23698;52.014;5.190;2023-03-15T03:14:13;16.85;;;9.35;;
37859;SDS011;23698;52.014;5.190;2023-03-15T03:17:00;15.07;;;7.82;;
37859;SDS011;23698;52.014;5.190;2023-03-15T03:19:48;14.05;;;8.60;;
37859;SDS011;23698;52.014;5.190;2023-03-15T03:22:40;19.33;;;8.25;;
37859;SDS011;23698;52.014;5.190;2023-03-15T03:25:28;16.00;;;8.38;;
37859;SDS011;23698;52.014;5.190;2023-03-15T03:28:14;14.93;;;8.15;;
37859;SDS011;23698;52.014;5.190;2023-03-15T03:31:01;15.82;;;8.15;;
37859;SDS011;23698;52.014;5.190;2023-03-15T03:33:48;15.73;;;7.85;;
37859;SDS011;23698;52.014;5.190;2023-03-15T03:36:36;19.25;;;8.18;;
37859;SDS011;23698;52.014;5.190;2023-03-15T03:39:23;15.85;;;7.82;;
37859;SDS011;23698;52.014;5.190;2023-03-15T03:42:09;16.95;;;8.85;;
37859;SDS011;23698;52.014;5.190;2023-03-15T03:44:56;19.15;;;8.45;;
37859;SDS011;23698;52.014;5.190;2023-03-15T03:47:48;21.33;;;8.57;;
37859;SDS011;23698;52.014;5.190;2023-03-15T03:50:35;18.63;;;9.00;;
37859;SDS011;23698;52.014;5.190;2023-03-15T03:53:23;17.08;;;9.00;;
37859;SDS011;23698;52.014;5.190;2023-03-15T03:56:10;14.73;;;8.43;;
37859;SDS011;23698;52.014;5.190;2023-03-15T03:58:57;15.60;;;8.85;;
37859;SDS011;23698;52.014;5.190;2023-03-15T04:01:55;19.80;;;8.60;;
37859;SDS011;23698;52.014;5.190;2023-03-15T04:04:42;18.63;;;8.75;;
37859;SDS011;23698;52.014;5.190;2023-03-15T04:07:34;14.77;;;8.10;;
37859;SDS011;23698;52.014;5.190;2023-03-15T04:10:22;15.82;;;7.82;;
37859;SDS011;23698;52.014;5.190;2023-03-15T04:13:10;17.25;;;7.15;;
37859;SDS011;23698;52.014;5.190;2023-03-15T04:15:56;16.55;;;7.82;;
37859;SDS011;23698;52.014;5.190;2023-03-15T04:18:50;15.10;;;7.32;;
37859;SDS011;23698;52.014;5.190;2023-03-15T04:21:41;16.58;;;7.80;;
37859;SDS011;23698;52.014;5.190;2023-03-15T04:24:48;12.77;;;7.20;;
37859;SDS011;23698;52.014;5.190;2023-03-15T04:28:00;16.13;;;7.30;;
37859;SDS011;23698;52.014;5.190;2023-03-15T04:30:59;15.13;;;6.97;;
37859;SDS011;23698;52.014;5.190;2023-03-15T04:34:15;14.57;;;6.50;;
37859;SDS011;23698;52.014;5.190;2023-03-15T04:37:27;14.27;;;6.53;;
37859;SDS011;23698;52.014;5.190;2023-03-15T04:40:39;16.08;;;5.60;;
37859;SDS011;23698;52.014;5.190;2023-03-15T04:43:51;14.98;;;5.45;;
37859;SDS011;23698;52.014;5.190;2023-03-15T04:47:10;16.27;;;5.93;;
37859;SDS011;23698;52.014;5.190;2023-03-15T04:50:11;11.30;;;5.30;;
37859;SDS011;23698;52.014;5.190;2023-03-15T04:53:36;12.27;;;4.82;;
37859;SDS011;23698;52.014;5.190;2023-03-15T04:56:42;21.83;;;6.03;;
37859;SDS011;23698;52.014;5.190;2023-03-15T04:59:48;16.77;;;5.18;;
37859;SDS011;23698;52.014;5.190;2023-03-15T05:02:58;20.35;;;4.63;;
37859;SDS011;23698;52.014;5.190;2023-03-15T05:05:59;11.52;;;4.53;;
37859;SDS011;23698;52.014;5.190;2023-03-15T05:09:01;16.27;;;4.85;;
37859;SDS011;23698;52.014;5.190;2023-03-15T05:12:03;11.30;;;4.40;;
37859;SDS011;23698;52.014;5.190;2023-03-15T05:15:16;18.38;;;5.28;;
37859;SDS011;23698;52.014;5.190;2023-03-15T05:21:25;11.93;;;3.90;;
37859;SDS011;23698;52.014;5.190;2023-03-15T05:24:24;11.45;;;4.10;;
37859;SDS011;23698;52.014;5.190;2023-03-15T05:27:29;12.52;;;3.88;;
37859;SDS011;23698;52.014;5.190;2023-03-15T05:30:29;10.48;;;4.10;;
37859;SDS011;23698;52.014;5.190;2023-03-15T05:36:38;15.40;;;3.90;;
37859;SDS011;23698;52.014;5.190;2023-03-15T05:39:44;10.18;;;3.53;;
37859;SDS011;23698;52.014;5.190;2023-03-15T05:42:37;21.27;;;4.85;;
37859;SDS011;23698;52.014;5.190;2023-03-15T05:45:53;22.98;;;7.47;;
37859;SDS011;23698;52.014;5.190;2023-03-15T05:49:05;17.23;;;6.47;;
37859;SDS011;23698;52.014;5.190;2023-03-15T05:51:57;9.23;;;3.58;;
37859;SDS011;23698;52.014;5.190;2023-03-15T05:55:00;10.25;;;3.58;;
37859;SDS011;23698;52.014;5.190;2023-03-15T05:58:02;10.55;;;3.22;;
37859;SDS011;23698;52.014;5.190;2023-03-15T06:01:02;18.55;;;3.10;;
37859;SDS011;23698;52.014;5.190;2023-03-15T06:04:14;10.38;;;3.25;;
37859;SDS011;23698;52.014;5.190;2023-03-15T06:07:02;12.25;;;3.90;;
37859;SDS011;23698;52.014;5.190;2023-03-15T06:09:50;8.52;;;3.00;;
37859;SDS011;23698;52.014;5.190;2023-03-15T06:12:37;16.77;;;5.15;;
37859;SDS011;23698;52.014;5.190;2023-03-15T06:15:23;20.02;;;3.42;;
37859;SDS011;23698;52.014;5.190;2023-03-15T06:18:12;16.27;;;3.13;;
37859;SDS011;23698;52.014;5.190;2023-03-15T06:21:01;13.40;;;2.72;;
37859;SDS011;23698;52.014;5.190;2023-03-15T06:23:47;12.25;;;3.22;;
37859;SDS011;23698;52.014;5.190;2023-03-15T06:26:35;14.40;;;2.67;;
37859;SDS011;23698;52.014;5.190;2023-03-15T06:29:23;16.25;;;3.08;;
37859;SDS011;23698;52.014;5.190;2023-03-15T06:32:11;18.92;;;4.40;;
37859;SDS011;23698;52.014;5.190;2023-03-15T06:35:01;14.65;;;4.95;;
37859;SDS011;23698;52.014;5.190;2023-03-15T06:37:49;18.17;;;3.50;;
37859;SDS011;23698;52.014;5.190;2023-03-15T06:40:37;27.02;;;9.07;;
37859;SDS011;23698;52.014;5.190;2023-03-15T06:43:23;29.40;;;9.50;;
37859;SDS011;23698;52.014;5.190;2023-03-15T06:46:10;44.05;;;18.85;;
37859;SDS011;23698;52.014;5.190;2023-03-15T06:48:57;21.40;;;4.63;;
37859;SDS011;23698;52.014;5.190;2023-03-15T06:51:46;15.80;;;3.53;;
37859;SDS011;23698;52.014;5.190;2023-03-15T06:54:32;11.73;;;3.67;;
37859;SDS011;23698;52.014;5.190;2023-03-15T06:57:19;13.38;;;3.08;;
37859;SDS011;23698;52.014;5.190;2023-03-15T07:00:06;11.13;;;2.33;;
37859;SDS011;23698;52.014;5.190;2023-03-15T07:02:56;20.75;;;3.40;;
37859;SDS011;23698;52.014;5.190;2023-03-15T07:05:43;14.35;;;2.40;;
37859;SDS011;23698;52.014;5.190;2023-03-15T07:08:31;14.95;;;2.40;;
37859;SDS011;23698;52.014;5.190;2023-03-15T07:11:18;9.23;;;2.50;;
37859;SDS011;23698;52.014;5.190;2023-03-15T07:14:05;11.25;;;3.03;;
37859;SDS011;23698;52.014;5.190;2023-03-15T07:16:51;10.95;;;2.13;;
37859;SDS011;23698;52.014;5.190;2023-03-15T07:19:38;12.13;;;2.50;;
37859;SDS011;23698;52.014;5.190;2023-03-15T07:22:39;17.75;;;2.85;;
37859;SDS011;23698;52.014;5.190;2023-03-15T07:25:30;13.57;;;2.17;;
37859;SDS011;23698;52.014;5.190;2023-03-15T07:28:26;9.30;;;2.20;;
37859;SDS011;23698;52.014;5.190;2023-03-15T07:31:13;11.27;;;2.40;;
37859;SDS011;23698;52.014;5.190;2023-03-15T07:33:59;12.45;;;2.72;;
37859;SDS011;23698;52.014;5.190;2023-03-15T07:36:46;5.72;;;1.35;;
37859;SDS011;23698;52.014;5.190;2023-03-15T07:39:32;13.70;;;2.10;;
37859;SDS011;23698;52.014;5.190;2023-03-15T07:42:20;9.70;;;1.92;;
37859;SDS011;23698;52.014;5.190;2023-03-15T07:45:09;6.28;;;1.10;;
37859;SDS011;23698;52.014;5.190;2023-03-15T07:47:56;8.95;;;1.50;;
37859;SDS011;23698;52.014;5.190;2023-03-15T07:50:43;6.18;;;1.38;;
37859;SDS011;23698;52.014;5.190;2023-03-15T07:53:30;7.38;;;1.23;;
37859;SDS011;23698;52.014;5.190;2023-03-15T07:56:17;3.58;;;1.40;;
37859;SDS011;23698;52.014;5.190;2023-03-15T07:59:05;6.03;;;1.95;;
37859;SDS011;23698;52.014;5.190;2023-03-15T08:01:51;8.43;;;1.30;;
37859;SDS011;23698;52.014;5.190;2023-03-15T08:04:38;5.90;;;1.30;;
37859;SDS011;23698;52.014;5.190;2023-03-15T08:07:25;8.23;;;1.50;;
37859;SDS011;23698;52.014;5.190;2023-03-15T08:10:11;4.53;;;1.17;;
37859;SDS011;23698;52.014;5.190;2023-03-15T08:12:58;8.57;;;1.33;;
37859;SDS011;23698;52.014;5.190;2023-03-15T08:15:46;8.68;;;1.05;;
37859;SDS011;23698;52.014;5.190;2023-03-15T08:18:32;9.65;;;1.40;;
37859;SDS011;23698;52.014;5.190;2023-03-15T08:21:18;4.40;;;1.20;;
37859;SDS011;23698;52.014;5.190;2023-03-15T08:24:05;8.40;;;1.30;;
37859;SDS011;23698;52.014;5.190;2023-03-15T08:26:51;4.45;;;1.02;;
37859;SDS011;23698;52.014;5.190;2023-03-15T08:29:38;7.63;;;1.20;;
37859;SDS011;23698;52.014;5.190;2023-03-15T08:32:25;8.52;;;1.85;;
37859;SDS011;23698;52.014;5.190;2023-03-15T08:35:12;6.63;;;1.20;;
37859;SDS011;23698;52.014;5.190;2023-03-15T08:38:01;12.20;;;1.65;;
37859;SDS011;23698;52.014;5.190;2023-03-15T08:40:47;6.55;;;1.55;;
37859;SDS011;23698;52.014;5.190;2023-03-15T08:43:34;6.25;;;1.20;;
37859;SDS011;23698;52.014;5.190;2023-03-15T08:46:20;11.38;;;2.33;;
37859;SDS011;23698;52.014;5.190;2023-03-15T08:49:08;13.48;;;1.85;;
37859;SDS011;23698;52.014;5.190;2023-03-15T08:51:54;8.73;;;1.70;;
37859;SDS011;23698;52.014;5.190;2023-03-15T08:54:41;6.43;;;1.55;;
37859;SDS011;23698;52.014;5.190;2023-03-15T08:57:27;9.63;;;1.50;;
37859;SDS011;23698;52.014;5.190;2023-03-15T09:00:17;4.00;;;1.02;;
37859;SDS011;23698;52.014;5.190;2023-03-15T09:03:05;9.98;;;1.02;;
37859;SDS011;23698;52.014;5.190;2023-03-15T09:05:55;10.07;;;1.73;;
37859;SDS011;23698;52.014;5.190;2023-03-15T09:08:42;9.40;;;1.65;;
37859;SDS011;23698;52.014;5.190;2023-03-15T09:11:28;8.45;;;1.60;;
37859;SDS011;23698;52.014;5.190;2023-03-15T09:14:15;8.45;;;1.40;;
37859;SDS011;23698;52.014;5.190;2023-03-15T09:17:02;6.35;;;1.80;;
37859;SDS011;23698;52.014;5.190;2023-03-15T09:19:48;6.88;;;1.40;;
37859;SDS011;23698;52.014;5.190;2023-03-15T09:22:37;9.65;;;1.40;;
37859;SDS011;23698;52.014;5.190;2023-03-15T09:25:24;9.50;;;1.30;;
37859;SDS011;23698;52.014;5.190;2023-03-15T09:28:11;8.32;;;1.50;;
37859;SDS011;23698;52.014;5.190;2023-03-15T09:30:58;6.38;;;1.48;;
37859;SDS011;23698;52.014;5.190;2023-03-15T09:33:45;11.38;;;1.20;;
37859;SDS011;23698;52.014;5.190;2023-03-15T09:36:31;7.70;;;1.10;;
37859;SDS011;23698;52.014;5.190;2023-03-15T09:39:20;7.60;;;1.30;;
37859;SDS011;23698;52.014;5.190;2023-03-15T09:42:07;7.68;;;1.40;;
37859;SDS011;23698;52.014;5.190;2023-03-15T09:45:01;6.05;;;1.20;;
37859;SDS011;23698;52.014;5.190;2023-03-15T09:47:59;6.85;;;1.25;;
37859;SDS011;23698;52.014;5.190;2023-03-15T09:50:51;6.05;;;1.00;;
37859;SDS011;23698;52.014;5.190;2023-03-15T09:53:41;9.68;;;1.45;;
37859;SDS011;23698;52.014;5.190;2023-03-15T09:56:36;6.00;;;1.30;;
37859;SDS011;23698;52.014;5.190;2023-03-15T09:59:30;7.70;;;1.05;;
37859;SDS011;23698;52.014;5.190;2023-03-15T10:02:22;16.13;;;1.58;;
37859;SDS011;23698;52.014;5.190;2023-03-15T10:05:11;9.32;;;1.95;;
37859;SDS011;23698;52.014;5.190;2023-03-15T10:08:07;5.30;;;1.10;;
37859;SDS011;23698;52.014;5.190;2023-03-15T10:10:56;9.43;;;1.20;;
37859;SDS011;23698;52.014;5.190;2023-03-15T10:13:56;8.50;;;1.48;;
37859;SDS011;23698;52.014;5.190;2023-03-15T10:16:50;15.07;;;4.65;;
37859;SDS011;23698;52.014;5.190;2023-03-15T10:19:41;9.95;;;1.23;;
37859;SDS011;23698;52.014;5.190;2023-03-15T10:22:35;4.00;;;1.00;;
37859;SDS011;23698;52.014;5.190;2023-03-15T10:25:26;11.27;;;1.38;;
37859;SDS011;23698;52.014;5.190;2023-03-15T10:28:18;4.95;;;1.02;;
37859;SDS011;23698;52.014;5.190;2023-03-15T10:31:12;9.95;;;1.13;;
37859;SDS011;23698;52.014;5.190;2023-03-15T10:34:10;4.65;;;1.55;;
37859;SDS011;23698;52.014;5.190;2023-03-15T10:36:56;5.05;;;0.95;;
37859;SDS011;23698;52.014;5.190;2023-03-15T10:39:44;5.35;;;0.98;;
37859;SDS011;23698;52.014;5.190;2023-03-15T10:42:32;7.93;;;1.13;;
37859;SDS011;23698;52.014;5.190;2023-03-15T10:45:19;6.20;;;1.10;;
37859;SDS011;23698;52.014;5.190;2023-03-15T10:48:14;11.38;;;1.33;;
37859;SDS011;23698;52.014;5.190;2023-03-15T10:51:03;3.67;;;1.05;;
37859;SDS011;23698;52.014;5.190;2023-03-15T10:53:52;8.57;;;1.15;;
37859;SDS011;23698;52.014;5.190;2023-03-15T10:56:47;6.25;;;1.70;;
37859;SDS011;23698;52.014;5.190;2023-03-15T10:59:37;9.05;;;1.40;;
37859;SDS011;23698;52.014;5.190;2023-03-15T11:02:41;5.05;;;1.50;;
37859;SDS011;23698;52.014;5.190;2023-03-15T11:05:40;6.75;;;1.40;;
37859;SDS011;23698;52.014;5.190;2023-03-15T11:11:22;6.70;;;1.48;;
37859;SDS011;23698;52.014;5.190;2023-03-15T11:14:12;9.77;;;1.17;;
37859;SDS011;23698;52.014;5.190;2023-03-15T11:16:59;7.20;;;1.48;;
37859;SDS011;23698;52.014;5.190;2023-03-15T11:19:47;6.20;;;1.23;;
37859;SDS011;23698;52.014;5.190;2023-03-15T11:22:42;5.03;;;1.20;;
37859;SDS011;23698;52.014;5.190;2023-03-15T11:25:29;8.55;;;2.25;;
37859;SDS011;23698;52.014;5.190;2023-03-15T11:28:19;10.30;;;1.42;;
37859;SDS011;23698;52.014;5.190;2023-03-15T11:31:18;5.00;;;1.20;;
37859;SDS011;23698;52.014;5.190;2023-03-15T11:34:11;5.32;;;0.90;;
37859;SDS011;23698;52.014;5.190;2023-03-15T11:37:03;10.95;;;3.90;;
37859;SDS011;23698;52.014;5.190;2023-03-15T11:39:59;7.47;;;1.50;;
37859;SDS011;23698;52.014;5.190;2023-03-15T11:42:59;8.68;;;0.90;;
37859;SDS011;23698;52.014;5.190;2023-03-15T11:45:56;3.65;;;1.00;;
37859;SDS011;23698;52.014;5.190;2023-03-15T11:48:55;6.82;;;0.85;;
37859;SDS011;23698;52.014;5.190;2023-03-15T12:00:54;3.65;;;0.77;;
37859;SDS011;23698;52.014;5.190;2023-03-15T12:08:21;5.15;;;1.08;;
37859;SDS011;23698;52.014;5.190;2023-03-15T12:11:10;3.63;;;0.98;;
37859;SDS011;23698;52.014;5.190;2023-03-15T12:14:02;8.45;;;1.00;;
37859;SDS011;23698;52.014;5.190;2023-03-15T12:16:52;4.65;;;1.05;;
37859;SDS011;23698;52.014;5.190;2023-03-15T12:19:58;4.55;;;0.93;;
37859;SDS011;23698;52.014;5.190;2023-03-15T12:22:49;6.75;;;1.10;;
37859;SDS011;23698;52.014;5.190;2023-03-15T12:25:38;3.45;;;1.02;;
37859;SDS011;23698;52.014;5.190;2023-03-15T12:28:40;7.78;;;2.47;;
37859;SDS011;23698;52.014;5.190;2023-03-15T12:34:55;11.40;;;1.45;;
37859;SDS011;23698;52.014;5.190;2023-03-15T12:37:43;4.22;;;1.17;;
37859;SDS011;23698;52.014;5.190;2023-03-15T12:40:37;4.53;;;1.00;;
37859;SDS011;23698;52.014;5.190;2023-03-15T12:43:36;3.85;;;1.00;;
37859;SDS011;23698;52.014;5.190;2023-03-15T12:49:45;3.17;;;0.82;;
37859;SDS011;23698;52.014;5.190;2023-03-15T12:52:37;10.65;;;1.27;;
37859;SDS011;23698;52.014;5.190;2023-03-15T12:55:28;6.10;;;1.30;;
37859;SDS011;23698;52.014;5.190;2023-03-15T13:01:10;7.57;;;0.90;;
37859;SDS011;23698;52.014;5.190;2023-03-15T13:04:03;8.18;;;1.10;;
37859;SDS011;23698;52.014;5.190;2023-03-15T13:07:05;9.38;;;1.05;;
37859;SDS011;23698;52.014;5.190;2023-03-15T13:10:18;3.35;;;0.90;;
37859;SDS011;23698;52.014;5.190;2023-03-15T13:13:21;5.97;;;1.50;;
37859;SDS011;23698;52.014;5.190;2023-03-15T13:16:20;5.78;;;1.90;;
37859;SDS011;23698;52.014;5.190;2023-03-15T13:19:15;5.32;;;0.82;;
37859;SDS011;23698;52.014;5.190;2023-03-15T13:22:08;6.85;;;1.95;;
37859;SDS011;23698;52.014;5.190;2023-03-15T13:25:02;4.25;;;0.80;;
37859;SDS011;23698;52.014;5.190;2023-03-15T13:27:57;4.45;;;0.80;;
37859;SDS011;23698;52.014;5.190;2023-03-15T13:30:51;3.92;;;0.90;;
37859;SDS011;23698;52.014;5.190;2023-03-15T13:33:40;5.45;;;0.88;;
37859;SDS011;23698;52.014;5.190;2023-03-15T13:36:37;6.93;;;1.15;;
37859;SDS011;23698;52.014;5.190;2023-03-15T13:39:29;9.23;;;1.17;;
37859;SDS011;23698;52.014;5.190;2023-03-15T13:42:20;5.03;;;1.40;;
37859;SDS011;23698;52.014;5.190;2023-03-15T13:45:10;2.72;;;0.80;;
37859;SDS011;23698;52.014;5.190;2023-03-15T13:48:01;3.65;;;0.88;;
37859;SDS011;23698;52.014;5.190;2023-03-15T13:50:49;2.58;;;0.88;;
37859;SDS011;23698;52.014;5.190;2023-03-15T13:53:38;3.20;;;0.80;;
37859;SDS011;23698;52.014;5.190;2023-03-15T13:56:37;2.78;;;1.10;;
37859;SDS011;23698;52.014;5.190;2023-03-15T13:59:34;4.50;;;0.65;;
37859;SDS011;23698;52.014;5.190;2023-03-15T14:02:27;4.78;;;0.80;;
37859;SDS011;23698;52.014;5.190;2023-03-15T14:05:22;4.63;;;0.70;;
37859;SDS011;23698;52.014;5.190;2023-03-15T14:08:16;4.72;;;0.98;;
37859;SDS011;23698;52.014;5.190;2023-03-15T14:11:09;4.47;;;0.60;;
37859;SDS011;23698;52.014;5.190;2023-03-15T14:14:17;2.50;;;0.63;;
37859;SDS011;23698;52.014;5.190;2023-03-15T14:17:23;5.25;;;1.10;;
37859;SDS011;23698;52.014;5.190;2023-03-15T14:20:14;2.72;;;0.90;;
37859;SDS011;23698;52.014;5.190;2023-03-15T14:23:03;3.85;;;0.80;;
37859;SDS011;23698;52.014;5.190;2023-03-15T14:25:53;7.63;;;0.80;;
37859;SDS011;23698;52.014;5.190;2023-03-15T14:28:41;6.97;;;1.40;;
37859;SDS011;23698;52.014;5.190;2023-03-15T14:31:35;4.05;;;0.80;;
37859;SDS011;23698;52.014;5.190;2023-03-15T14:34:29;3.63;;;0.77;;
37859;SDS011;23698;52.014;5.190;2023-03-15T14:37:26;2.75;;;0.70;;
37859;SDS011;23698;52.014;5.190;2023-03-15T14:40:16;5.53;;;0.95;;
37859;SDS011;23698;52.014;5.190;2023-03-15T14:43:05;3.38;;;0.63;;
37859;SDS011;23698;52.014;5.190;2023-03-15T14:45:53;5.60;;;0.82;;
37859;SDS011;23698;52.014;5.190;2023-03-15T14:48:41;3.20;;;1.15;;
37859;SDS011;23698;52.014;5.190;2023-03-15T14:51:27;5.15;;;0.95;;
37859;SDS011;23698;52.014;5.190;2023-03-15T14:54:14;6.38;;;0.80;;
37859;SDS011;23698;52.014;5.190;2023-03-15T14:57:02;3.55;;;0.68;;
37859;SDS011;23698;52.014;5.190;2023-03-15T14:59:48;5.72;;;1.35;;
37859;SDS011;23698;52.014;5.190;2023-03-15T15:02:35;3.10;;;0.70;;
37859;SDS011;23698;52.014;5.190;2023-03-15T15:05:24;3.45;;;0.80;;
37859;SDS011;23698;52.014;5.190;2023-03-15T15:08:13;4.43;;;0.93;;
37859;SDS011;23698;52.014;5.190;2023-03-15T15:11:01;2.05;;;0.80;;
37859;SDS011;23698;52.014;5.190;2023-03-15T15:13:48;1.75;;;0.50;;
37859;SDS011;23698;52.014;5.190;2023-03-15T15:16:35;5.07;;;0.77;;
37859;SDS011;23698;52.014;5.190;2023-03-15T15:19:22;2.72;;;1.10;;
37859;SDS011;23698;52.014;5.190;2023-03-15T15:22:10;6.00;;;0.90;;
37859;SDS011;23698;52.014;5.190;2023-03-15T15:24:56;5.50;;;0.68;;
37859;SDS011;23698;52.014;5.190;2023-03-15T15:27:43;1.00;;;0.47;;
37859;SDS011;23698;52.014;5.190;2023-03-15T15:30:30;3.38;;;0.80;;
37859;SDS011;23698;52.014;5.190;2023-03-15T15:33:16;3.97;;;0.98;;
37859;SDS011;23698;52.014;5.190;2023-03-15T15:36:05;1.95;;;0.73;;
37859;SDS011;23698;52.014;5.190;2023-03-15T15:38:58;5.18;;;0.88;;
37859;SDS011;23698;52.014;5.190;2023-03-15T15:41:51;3.92;;;0.55;;
37859;SDS011;23698;52.014;5.190;2023-03-15T15:44:38;4.00;;;0.70;;
37859;SDS011;23698;52.014;5.190;2023-03-15T15:47:24;4.22;;;1.67;;
37859;SDS011;23698;52.014;5.190;2023-03-15T15:50:13;5.28;;;0.90;;
37859;SDS011;23698;52.014;5.190;2023-03-15T15:53:03;6.05;;;1.75;;
37859;SDS011;23698;52.014;5.190;2023-03-15T15:55:51;7.60;;;0.90;;
37859;SDS011;23698;52.014;5.190;2023-03-15T15:58:38;6.10;;;1.23;;
37859;SDS011;23698;52.014;5.190;2023-03-15T16:01:25;3.70;;;0.95;;
37859;SDS011;23698;52.014;5.190;2023-03-15T16:04:12;3.25;;;1.02;;
37859;SDS011;23698;52.014;5.190;2023-03-15T16:06:59;2.25;;;0.98;;
37859;SDS011;23698;52.014;5.190;2023-03-15T16:09:48;3.70;;;0.80;;
37859;SDS011;23698;52.014;5.190;2023-03-15T16:12:41;2.13;;;0.82;;
37859;SDS011;23698;52.014;5.190;2023-03-15T16:15:28;6.80;;;1.10;;
37859;SDS011;23698;52.014;5.190;2023-03-15T16:18:14;2.88;;;0.90;;
37859;SDS011;23698;52.014;5.190;2023-03-15T16:21:01;9.00;;;2.40;;
37859;SDS011;23698;52.014;5.190;2023-03-15T16:23:49;13.90;;;1.35;;
37859;SDS011;23698;52.014;5.190;2023-03-15T16:26:41;8.50;;;1.00;;
37859;SDS011;23698;52.014;5.190;2023-03-15T16:29:34;6.97;;;1.33;;
37859;SDS011;23698;52.014;5.190;2023-03-15T16:32:23;3.25;;;1.27;;
37859;SDS011;23698;52.014;5.190;2023-03-15T16:35:29;6.55;;;2.85;;
37859;SDS011;23698;52.014;5.190;2023-03-15T16:38:18;4.93;;;0.95;;
37859;SDS011;23698;52.014;5.190;2023-03-15T16:41:09;3.45;;;1.00;;
37859;SDS011;23698;52.014;5.190;2023-03-15T16:43:58;4.70;;;1.50;;
37859;SDS011;23698;52.014;5.190;2023-03-15T16:46:46;7.72;;;1.25;;
37859;SDS011;23698;52.014;5.190;2023-03-15T16:49:33;4.22;;;1.38;;
37859;SDS011;23698;52.014;5.190;2023-03-15T16:52:20;8.48;;;2.08;;
37859;SDS011;23698;52.014;5.190;2023-03-15T16:55:06;1.92;;;1.00;;
37859;SDS011;23698;52.014;5.190;2023-03-15T16:57:56;4.90;;;1.63;;
37859;SDS011;23698;52.014;5.190;2023-03-15T17:00:43;1.83;;;1.00;;
37859;SDS011;23698;52.014;5.190;2023-03-15T17:03:34;5.60;;;1.10;;
37859;SDS011;23698;52.014;5.190;2023-03-15T17:06:21;3.85;;;1.00;;
37859;SDS011;23698;52.014;5.190;2023-03-15T17:09:09;3.97;;;1.58;;
37859;SDS011;23698;52.014;5.190;2023-03-15T17:14:45;3.80;;;1.38;;
37859;SDS011;23698;52.014;5.190;2023-03-15T17:17:32;2.90;;;1.40;;
37859;SDS011;23698;52.014;5.190;2023-03-15T17:20:23;8.10;;;2.10;;
37859;SDS011;23698;52.014;5.190;2023-03-15T17:23:12;3.00;;;1.60;;
37859;SDS011;23698;52.014;5.190;2023-03-15T17:25:59;2.20;;;1.30;;
37859;SDS011;23698;52.014;5.190;2023-03-15T17:28:45;9.02;;;4.60;;
37859;SDS011;23698;52.014;5.190;2023-03-15T17:31:33;3.97;;;1.50;;
37859;SDS011;23698;52.014;5.190;2023-03-15T17:34:21;3.17;;;1.30;;
37859;SDS011;23698;52.014;5.190;2023-03-15T17:37:09;3.78;;;1.95;;
37859;SDS011;23698;52.014;5.190;2023-03-15T17:39:56;5.68;;;2.60;;